createdAt,value
2022-08-22T00:00:11.365Z,5.30
2022-08-22T00:02:47.662Z,6.77
2022-08-22T00:02:53.053Z,7.53
2022-08-22T00:02:56.262Z,6.00
2022-08-22T00:03:09.242Z,5.60
2022-08-22T00:03:15.360Z,6.47
2022-08-22T00:05:49.008Z,5.50
2022-08-22T00:08:22.863Z,4.70
2022-08-22T00:10:57.863Z,4.90
2022-08-22T00:13:36.417Z,4.87
2022-08-22T00:16:13.887Z,4.90
2022-08-22T00:18:49.664Z,5.30
2022-08-22T00:21:23.104Z,5.07
2022-08-22T00:23:55.693Z,4.87
2022-08-22T00:26:35.008Z,5.00
2022-08-22T00:29:08.117Z,5.27
2022-08-22T00:31:40.875Z,5.37
2022-08-22T00:34:14.819Z,5.10
2022-08-22T00:36:48.899Z,4.13
2022-08-22T00:39:20.124Z,4.73
2022-08-22T00:42:13.060Z,4.63
2022-08-22T00:45:21.919Z,5.33
2022-08-22T00:47:58.635Z,5.13
2022-08-22T00:50:43.311Z,5.33
2022-08-22T00:53:31.969Z,4.37
2022-08-22T00:56:20.117Z,4.57
2022-08-22T00:59:23.342Z,4.10
2022-08-22T01:02:04.801Z,4.50
2022-08-22T01:04:52.793Z,4.33
2022-08-22T01:07:38.059Z,5.40
2022-08-22T01:10:20.047Z,5.63
2022-08-22T01:13:04.721Z,4.90
2022-08-22T01:15:37.516Z,5.30
2022-08-22T01:18:29.387Z,4.60
2022-08-22T01:21:34.631Z,5.17
2022-08-22T01:24:38.722Z,4.70
2022-08-22T01:28:01.327Z,4.97
2022-08-22T01:30:55.998Z,4.30
2022-08-22T01:33:57.713Z,4.47
2022-08-22T01:37:01.638Z,4.13
2022-08-22T01:40:10.458Z,4.77
2022-08-22T01:42:54.076Z,5.73
2022-08-22T01:45:51.700Z,4.00
2022-08-22T01:48:23.303Z,4.23
2022-08-22T01:50:58.128Z,4.03
2022-08-22T01:53:40.629Z,5.00
2022-08-22T01:56:13.767Z,4.03
2022-08-22T01:58:46.714Z,4.57
2022-08-22T02:01:27.386Z,4.67
2022-08-22T02:04:02.866Z,4.87
2022-08-22T02:06:46.447Z,4.40
2022-08-22T02:09:28.049Z,4.33
2022-08-22T02:11:58.217Z,4.40
2022-08-22T02:14:41.630Z,4.10
2022-08-22T02:17:18.603Z,4.80
2022-08-22T02:19:56.162Z,4.47
2022-08-22T02:22:35.424Z,4.60
2022-08-22T02:25:09.790Z,5.10
2022-08-22T02:27:47.793Z,4.73
2022-08-22T02:30:19.277Z,4.27
2022-08-22T02:33:04.351Z,4.80
2022-08-22T02:35:38.462Z,4.63
2022-08-22T02:38:24.102Z,5.40
2022-08-22T02:41:01.965Z,4.70
2022-08-22T02:43:40.903Z,5.10
2022-08-22T02:46:19.126Z,5.67
2022-08-22T02:49:03.563Z,5.13
2022-08-22T02:51:37.175Z,4.53
2022-08-22T02:54:18.645Z,4.30
2022-08-22T02:56:53.368Z,5.10
2022-08-22T02:59:33.287Z,4.80
2022-08-22T03:02:28.117Z,5.07
2022-08-22T03:04:58.105Z,4.50
2022-08-22T03:07:34.849Z,4.17
2022-08-22T03:10:14.179Z,5.27
2022-08-22T03:12:56.977Z,5.17
2022-08-22T03:15:31.735Z,4.90
2022-08-22T03:18:05.352Z,4.97
2022-08-22T03:20:44.762Z,5.00
2022-08-22T03:23:21.836Z,5.20
2022-08-22T03:25:57.534Z,5.10
2022-08-22T03:28:29.350Z,5.27
2022-08-22T03:31:00.950Z,4.77
2022-08-22T03:33:30.858Z,5.30
2022-08-22T03:36:04.594Z,5.40
2022-08-22T03:38:48.617Z,5.17
2022-08-22T03:41:58.285Z,4.83
2022-08-22T03:44:49.578Z,5.37
2022-08-22T03:47:34.949Z,5.00
2022-08-22T03:50:25.070Z,4.87
2022-08-22T03:53:19.384Z,4.93
2022-08-22T03:56:13.895Z,5.20
2022-08-22T03:59:02.032Z,5.73
2022-08-22T04:02:41.867Z,5.53
2022-08-22T04:05:33.777Z,5.37
2022-08-22T04:08:43.919Z,5.00
2022-08-22T04:11:31.659Z,5.33
2022-08-22T04:14:14.056Z,4.90
2022-08-22T04:17:04.437Z,4.20
2022-08-22T04:19:49.371Z,5.30
2022-08-22T04:22:50.393Z,5.13
2022-08-22T04:25:23.766Z,4.73
2022-08-22T04:27:59.027Z,4.47
2022-08-22T04:30:34.614Z,5.60
2022-08-22T04:33:09.079Z,5.30
2022-08-22T04:35:42.781Z,5.47
2022-08-22T04:38:15.298Z,4.83
2022-08-22T04:40:47.655Z,4.70
2022-08-22T04:43:21.035Z,5.50
2022-08-22T04:45:55.318Z,5.13
2022-08-22T04:48:29.259Z,5.20
2022-08-22T04:51:04.038Z,5.27
2022-08-22T04:53:49.286Z,4.77
2022-08-22T04:56:25.906Z,4.63
2022-08-22T04:58:59.178Z,4.80
2022-08-22T05:01:47.230Z,4.63
2022-08-22T05:04:19.504Z,4.63
2022-08-22T05:06:51.786Z,4.17
2022-08-22T05:09:25.543Z,6.07
2022-08-22T05:12:00.220Z,5.90
2022-08-22T05:14:33.130Z,5.67
2022-08-22T05:17:04.458Z,5.53
2022-08-22T05:19:37.312Z,6.37
2022-08-22T05:22:15.115Z,5.70
2022-08-22T05:24:47.687Z,5.97
2022-08-22T05:27:20.798Z,5.53
2022-08-22T05:29:51.635Z,5.53
2022-08-22T05:32:26.308Z,6.20
2022-08-22T05:34:59.223Z,5.00
2022-08-22T05:37:34.961Z,6.43
2022-08-22T05:40:03.558Z,6.47
2022-08-22T05:42:34.699Z,6.03
2022-08-22T05:45:11.663Z,6.37
2022-08-22T05:47:46.341Z,5.93
2022-08-22T05:50:19.128Z,7.23
2022-08-22T05:53:00.706Z,6.83
2022-08-22T05:55:33.053Z,7.30
2022-08-22T05:58:17.452Z,6.70
2022-08-22T06:00:49.882Z,7.00
2022-08-22T06:03:26.097Z,7.07
2022-08-22T06:05:57.517Z,7.57
2022-08-22T06:08:29.575Z,7.10
2022-08-22T06:11:02.421Z,6.80
2022-08-22T06:13:35.732Z,6.40
2022-08-22T06:16:09.500Z,6.03
2022-08-22T06:18:41.694Z,7.10
2022-08-22T06:21:12.894Z,7.20
2022-08-22T06:23:47.425Z,6.40
2022-08-22T06:26:20.739Z,6.10
2022-08-22T06:28:59.178Z,7.80
2022-08-22T06:31:35.266Z,7.10
2022-08-22T06:34:10.375Z,7.80
2022-08-22T06:36:42.056Z,7.20
2022-08-22T06:39:19.486Z,7.07
2022-08-22T06:41:53.743Z,6.97
2022-08-22T06:44:24.602Z,8.90
2022-08-22T06:46:56.591Z,7.80
2022-08-22T06:49:27.544Z,8.73
2022-08-22T06:52:00.929Z,7.83
2022-08-22T06:54:34.590Z,8.27
2022-08-22T06:57:04.578Z,8.67
2022-08-22T06:59:38.284Z,8.00
2022-08-22T07:02:17.518Z,7.80
2022-08-22T07:04:49.668Z,8.47
2022-08-22T07:07:19.619Z,6.63
2022-08-22T07:09:55.395Z,8.43
2022-08-22T07:12:27.871Z,8.00
2022-08-22T07:15:19.588Z,9.53
2022-08-22T07:17:52.790Z,7.70
2022-08-22T07:20:28.009Z,6.87
2022-08-22T07:23:01.630Z,7.73
2022-08-22T07:25:31.657Z,7.53
2022-08-22T07:28:20.071Z,7.37
2022-08-22T07:30:56.754Z,6.83
2022-08-22T07:33:42.214Z,6.47
2022-08-22T07:36:23.278Z,6.10
2022-08-22T07:39:04.378Z,5.63
2022-08-22T07:41:41.037Z,4.10
2022-08-22T07:44:17.760Z,3.80
2022-08-22T07:46:56.835Z,3.43
2022-08-22T07:49:30.061Z,3.50
2022-08-22T07:52:02.339Z,3.73
2022-08-22T07:54:37.583Z,3.33
2022-08-22T07:57:09.320Z,3.43
2022-08-22T07:59:39.414Z,3.20
2022-08-22T08:02:11.833Z,3.10
2022-08-22T08:04:42.366Z,2.90
2022-08-22T08:07:15.275Z,2.50
2022-08-22T08:09:47.402Z,2.70
2022-08-22T08:12:16.774Z,2.83
2022-08-22T08:14:46.873Z,2.90
2022-08-22T08:17:20.112Z,3.60
2022-08-22T08:19:50.591Z,2.47
2022-08-22T08:22:24.583Z,2.33
2022-08-22T08:24:55.439Z,2.60
2022-08-22T08:27:44.675Z,2.70
2022-08-22T08:30:21.536Z,2.20
2022-08-22T08:32:57.491Z,2.53
2022-08-22T08:36:02.326Z,2.03
2022-08-22T08:38:40.200Z,2.30
2022-08-22T08:41:30.558Z,2.10
2022-08-22T08:44:06.765Z,2.50
2022-08-22T08:46:58.354Z,2.27
2022-08-22T08:49:39.631Z,2.90
2022-08-22T08:52:25.303Z,2.00
2022-08-22T08:55:02.671Z,1.93
2022-08-22T08:58:06.672Z,1.77
2022-08-22T09:00:51.256Z,1.97
2022-08-22T09:03:43.636Z,2.40
2022-08-22T09:06:35.586Z,1.83
2022-08-22T09:09:17.046Z,2.13
2022-08-22T09:12:23.787Z,2.33
2022-08-22T09:15:14.299Z,1.57
2022-08-22T09:18:13.401Z,2.50
2022-08-22T09:21:30.456Z,2.40
2022-08-22T09:24:25.273Z,2.20
2022-08-22T09:29:54.724Z,2.10
2022-08-22T09:32:46.933Z,2.63
2022-08-22T09:35:25.834Z,2.10
2022-08-22T09:38:30.014Z,2.40
2022-08-22T09:41:08.451Z,2.30
2022-08-22T09:43:44.707Z,1.50
2022-08-22T09:46:23.553Z,1.93
2022-08-22T09:49:10.927Z,1.73
2022-08-22T09:51:46.069Z,1.77
2022-08-22T09:54:31.614Z,2.90
2022-08-22T09:57:17.549Z,2.03
2022-08-22T10:00:00.703Z,1.87
2022-08-22T10:02:43.640Z,2.10
2022-08-22T10:05:35.167Z,2.57
2022-08-22T10:08:28.366Z,1.97
2022-08-22T10:11:08.547Z,2.50
2022-08-22T10:13:47.899Z,1.87
2022-08-22T10:16:37.025Z,2.50
2022-08-22T10:19:16.699Z,2.70
2022-08-22T10:22:14.929Z,2.73
2022-08-22T10:24:48.986Z,2.10
2022-08-22T10:27:23.928Z,2.43
2022-08-22T10:30:08.140Z,2.23
2022-08-22T10:32:43.901Z,1.80
2022-08-22T10:35:23.107Z,2.63
2022-08-22T10:38:00.194Z,2.40
2022-08-22T10:40:33.894Z,2.20
2022-08-22T10:43:11.761Z,2.60
2022-08-22T10:45:43.282Z,1.60
2022-08-22T10:48:46.305Z,2.03
2022-08-22T10:51:37.552Z,1.40
2022-08-22T10:54:21.255Z,1.80
2022-08-22T10:56:57.483Z,1.90
2022-08-22T10:59:39.313Z,1.70
2022-08-22T11:02:42.182Z,1.20
2022-08-22T11:05:33.607Z,2.10
2022-08-22T11:08:25.976Z,1.93
2022-08-22T11:11:19.120Z,1.57
2022-08-22T11:14:02.587Z,1.83
2022-08-22T11:16:55.276Z,1.83
2022-08-22T11:19:48.425Z,1.70
2022-08-22T11:22:40.001Z,1.50
2022-08-22T11:25:26.927Z,1.10
2022-08-22T11:28:25.598Z,1.60
2022-08-22T11:31:07.054Z,1.50
2022-08-22T11:33:47.126Z,1.50
2022-08-22T11:36:31.203Z,1.30
2022-08-22T11:39:18.285Z,1.90
2022-08-22T11:41:58.494Z,2.23
2022-08-22T11:44:32.079Z,1.60
2022-08-22T11:47:08.689Z,1.50
2022-08-22T11:49:49.429Z,1.87
2022-08-22T11:52:29.658Z,1.33
2022-08-22T11:55:19.469Z,1.77
2022-08-22T11:57:53.779Z,1.53
2022-08-22T12:00:32.730Z,1.40
2022-08-22T12:03:44.129Z,1.60
2022-08-22T12:06:32.576Z,2.50
2022-08-22T12:09:20.353Z,1.97
2022-08-22T12:12:08.731Z,1.47
2022-08-22T12:14:46.058Z,1.30
2022-08-22T12:17:55.027Z,1.30
2022-08-22T12:20:45.364Z,1.67
2022-08-22T12:23:49.096Z,1.43
2022-08-22T12:26:26.965Z,1.53
2022-08-22T12:29:15.732Z,1.30
2022-08-22T12:32:27.708Z,1.10
2022-08-22T12:35:14.439Z,1.30
2022-08-22T12:37:53.093Z,1.30
2022-08-22T12:40:33.293Z,0.97
2022-08-22T12:43:32.419Z,1.27
2022-08-22T12:46:14.651Z,1.13
2022-08-22T12:49:00.333Z,1.30
2022-08-22T12:51:43.539Z,1.10
2022-08-22T12:54:46.300Z,0.93
2022-08-22T12:57:25.818Z,1.67
2022-08-22T12:59:58.214Z,1.30
2022-08-22T13:02:29.831Z,1.30
2022-08-22T13:05:03.272Z,0.80
2022-08-22T13:07:34.556Z,1.40
2022-08-22T13:10:09.834Z,1.00
2022-08-22T13:12:44.969Z,1.40
2022-08-22T13:15:31.212Z,2.03
2022-08-22T13:18:25.313Z,1.13
2022-08-22T13:20:54.850Z,1.50
2022-08-22T13:23:29.402Z,1.50
2022-08-22T13:26:07.645Z,1.20
2022-08-22T13:28:42.805Z,1.33
2022-08-22T13:31:21.063Z,1.30
2022-08-22T13:33:50.100Z,1.93
2022-08-22T13:36:22.987Z,2.10
2022-08-22T13:39:04.093Z,2.53
2022-08-22T13:41:43.055Z,1.07
2022-08-22T13:44:18.103Z,21.40
2022-08-22T13:47:13.058Z,6.07
2022-08-22T13:49:38.874Z,1.67
2022-08-22T13:52:29.030Z,2.20
2022-08-22T13:55:03.425Z,9.97
2022-08-22T13:57:43.076Z,2.00
2022-08-22T14:00:58.104Z,2.13
2022-08-22T14:03:32.853Z,1.77
2022-08-22T14:06:26.579Z,1.30
2022-08-22T14:08:56.943Z,1.07
2022-08-22T14:11:32.156Z,1.47
2022-08-22T14:14:03.161Z,1.40
2022-08-22T14:16:39.959Z,1.10
2022-08-22T14:19:11.043Z,1.10
2022-08-22T14:21:43.319Z,1.53
2022-08-22T14:24:19.946Z,1.57
2022-08-22T14:26:57.956Z,1.43
2022-08-22T14:29:29.266Z,1.27
2022-08-22T14:32:06.127Z,1.10
2022-08-22T14:34:42.081Z,1.27
2022-08-22T14:37:20.324Z,0.90
2022-08-22T14:39:55.150Z,1.80
2022-08-22T14:42:25.534Z,1.30
2022-08-22T14:45:07.036Z,1.23
2022-08-22T14:47:55.344Z,1.30
2022-08-22T14:50:45.757Z,1.27
2022-08-22T14:53:26.059Z,1.00
2022-08-22T14:56:03.818Z,1.00
2022-08-22T14:58:37.415Z,1.03
2022-08-22T15:01:11.389Z,1.33
2022-08-22T15:03:41.283Z,1.30
2022-08-22T15:06:13.263Z,1.10
2022-08-22T15:08:50.536Z,1.00
2022-08-22T15:11:27.296Z,1.40
2022-08-22T15:14:05.893Z,1.10
2022-08-22T15:16:37.812Z,1.33
2022-08-22T15:19:23.966Z,1.63
2022-08-22T15:21:52.863Z,1.13
2022-08-22T15:24:22.525Z,1.17
2022-08-22T15:26:55.341Z,1.50
2022-08-22T15:29:25.602Z,1.17
2022-08-22T15:31:55.713Z,1.53
2022-08-22T15:34:32.662Z,1.30
2022-08-22T15:37:11.985Z,1.20
2022-08-22T15:40:05.834Z,1.33
2022-08-22T15:42:43.427Z,1.17
2022-08-22T15:45:22.337Z,1.30
2022-08-22T15:47:53.055Z,1.87
2022-08-22T15:50:35.389Z,1.30
2022-08-22T15:53:23.894Z,1.60
2022-08-22T15:56:26.813Z,1.47
2022-08-22T15:59:26.994Z,1.30
2022-08-22T16:02:04.249Z,1.87
2022-08-22T16:04:36.745Z,2.20
2022-08-22T16:07:21.623Z,1.67
2022-08-22T16:09:53.007Z,1.63
2022-08-22T16:12:31.974Z,1.20
2022-08-22T16:15:01.273Z,1.40
2022-08-22T16:17:53.470Z,1.13
2022-08-22T16:20:56.866Z,1.47
2022-08-22T16:23:24.692Z,1.30
2022-08-22T16:26:10.535Z,1.10
2022-08-22T16:28:59.053Z,1.20
2022-08-22T16:31:31.194Z,0.80
2022-08-22T16:34:24.036Z,1.30
2022-08-22T16:37:42.844Z,0.90
2022-08-22T16:40:16.548Z,1.30
2022-08-22T16:42:47.370Z,1.20
2022-08-22T16:45:22.026Z,0.97
2022-08-22T16:47:56.788Z,1.10
2022-08-22T16:50:40.887Z,1.07
2022-08-22T16:53:13.738Z,1.00
2022-08-22T16:56:19.021Z,1.30
2022-08-22T16:59:19.725Z,2.13
2022-08-22T17:02:11.391Z,1.77
2022-08-22T17:04:50.677Z,1.80
2022-08-22T17:07:29.728Z,1.70
2022-08-22T17:10:34.416Z,2.90
2022-08-22T17:13:27.495Z,2.50
2022-08-22T17:16:06.998Z,1.73
2022-08-22T17:18:57.191Z,1.50
2022-08-22T17:21:29.783Z,1.50
2022-08-22T17:24:07.102Z,3.27
2022-08-22T17:26:54.271Z,2.20
2022-08-22T17:29:32.019Z,1.80
2022-08-22T17:32:11.132Z,2.10
2022-08-22T17:34:43.008Z,1.67
2022-08-22T17:37:18.065Z,2.60
2022-08-22T17:40:24.050Z,2.63
2022-08-22T17:43:10.494Z,3.00
2022-08-22T17:45:55.296Z,1.37
2022-08-22T17:48:27.359Z,1.00
2022-08-22T17:51:02.580Z,1.67
2022-08-22T17:53:37.366Z,1.33
2022-08-22T17:56:15.434Z,0.90
2022-08-22T17:58:46.929Z,1.10
2022-08-22T18:01:33.542Z,1.37
2022-08-22T18:04:03.764Z,0.97
2022-08-22T18:06:35.530Z,1.57
2022-08-22T18:09:16.622Z,0.93
2022-08-22T18:11:50.907Z,1.13
2022-08-22T18:14:28.596Z,0.90
2022-08-22T18:16:59.091Z,1.20
2022-08-22T18:19:41.036Z,2.03
2022-08-22T18:22:14.675Z,2.73
2022-08-22T18:24:50.886Z,5.43
2022-08-22T18:27:30.080Z,6.10
2022-08-22T18:30:08.285Z,5.50
2022-08-22T18:32:41.601Z,4.63
2022-08-22T18:35:17.921Z,3.13
2022-08-22T18:37:56.071Z,1.97
2022-08-22T18:40:31.651Z,1.73
2022-08-22T18:43:13.729Z,1.67
2022-08-22T18:46:04.082Z,1.20
2022-08-22T18:48:54.307Z,1.70
2022-08-22T18:51:29.797Z,1.60
2022-08-22T18:54:20.484Z,1.87
2022-08-22T18:56:54.086Z,1.70
2022-08-22T18:59:42.277Z,1.90
2022-08-22T19:02:34.626Z,1.90
2022-08-22T19:05:34.170Z,2.00
2022-08-22T19:08:22.293Z,1.40
2022-08-22T19:10:56.200Z,2.43
2022-08-22T19:13:47.578Z,2.53
2022-08-22T19:16:44.396Z,1.77
2022-08-22T19:19:17.584Z,1.83
2022-08-22T19:22:29.179Z,2.33
2022-08-22T19:25:19.729Z,1.80
2022-08-22T19:28:23.320Z,1.30
2022-08-22T19:30:53.270Z,1.70
2022-08-22T19:33:34.804Z,1.33
2022-08-22T19:36:09.620Z,1.30
2022-08-22T19:38:57.398Z,1.60
2022-08-22T19:41:56.967Z,1.33
2022-08-22T19:44:38.657Z,1.00
2022-08-22T19:47:16.677Z,1.00
2022-08-22T19:49:49.311Z,1.40
2022-08-22T19:52:28.440Z,1.27
2022-08-22T19:55:08.988Z,1.27
2022-08-22T19:57:42.905Z,1.37
2022-08-22T20:00:13.470Z,1.43
2022-08-22T20:02:57.332Z,1.10
2022-08-22T20:05:39.105Z,1.30
2022-08-22T20:08:25.468Z,1.73
2022-08-22T20:11:03.834Z,1.40
2022-08-22T20:13:33.962Z,1.20
2022-08-22T20:16:13.410Z,1.33
2022-08-22T20:19:15.055Z,1.70
2022-08-22T20:21:55.097Z,1.30
2022-08-22T20:24:29.887Z,1.40
2022-08-22T20:27:13.758Z,1.10
2022-08-22T20:29:49.128Z,1.47
2022-08-22T20:32:20.434Z,1.80
2022-08-22T20:34:51.674Z,1.30
2022-08-22T20:37:45.454Z,1.90
2022-08-22T20:40:53.266Z,1.57
2022-08-22T20:43:25.702Z,1.70
2022-08-22T20:46:05.941Z,1.43
2022-08-22T20:48:39.231Z,1.40
2022-08-22T20:51:09.876Z,1.70
2022-08-22T20:53:38.926Z,1.27
2022-08-22T20:56:09.506Z,1.50
2022-08-22T20:58:39.771Z,1.70
2022-08-22T21:01:12.147Z,1.50
2022-08-22T21:03:44.193Z,2.10
2022-08-22T21:06:14.405Z,1.60
2022-08-22T21:08:44.770Z,1.63
2022-08-22T21:11:39.759Z,1.50
2022-08-22T21:14:19.599Z,2.10
2022-08-22T21:16:48.677Z,1.80
2022-08-22T21:19:21.170Z,2.27
2022-08-22T21:21:48.896Z,1.83
2022-08-22T21:24:18.033Z,2.27
2022-08-22T21:26:53.983Z,1.80
2022-08-22T21:29:23.506Z,2.13
2022-08-22T21:31:59.166Z,1.47
2022-08-22T21:34:36.220Z,1.50
2022-08-22T21:37:17.746Z,1.43
2022-08-22T21:39:50.479Z,1.87
2022-08-22T21:42:24.874Z,2.27
2022-08-22T21:44:57.445Z,2.10
2022-08-22T21:47:36.807Z,1.77
2022-08-22T21:50:18.571Z,2.40
2022-08-22T21:53:03.308Z,1.50
2022-08-22T21:55:34.998Z,2.10
2022-08-22T21:58:10.052Z,2.13
2022-08-22T22:00:49.333Z,1.90
2022-08-22T22:03:19.421Z,2.47
2022-08-22T22:05:47.425Z,1.47
2022-08-22T22:08:15.187Z,1.97
2022-08-22T22:10:46.311Z,1.77
2022-08-22T22:13:14.543Z,2.07
2022-08-22T22:15:44.901Z,2.43
2022-08-22T22:18:13.303Z,1.70
2022-08-22T22:20:41.825Z,2.03
2022-08-22T22:23:10.278Z,2.30
2022-08-22T22:25:42.234Z,2.50
2022-08-22T22:28:14.564Z,1.87
2022-08-22T22:30:43.939Z,2.23
2022-08-22T22:33:12.046Z,2.63
2022-08-22T22:35:41.233Z,2.40
2022-08-22T22:38:09.841Z,1.70
2022-08-22T22:40:37.473Z,2.47
2022-08-22T22:43:05.269Z,2.50
2022-08-22T22:45:34.284Z,2.37
2022-08-22T22:48:01.965Z,2.40
2022-08-22T22:50:29.712Z,2.40
2022-08-22T22:52:57.384Z,2.40
2022-08-22T22:55:25.576Z,2.33
2022-08-22T22:57:59.224Z,2.03
2022-08-22T23:00:30.521Z,2.20
2022-08-22T23:03:01.342Z,2.80
2022-08-22T23:05:29.662Z,2.70
2022-08-22T23:07:57.707Z,2.50
2022-08-22T23:10:25.561Z,3.00
2022-08-22T23:12:53.193Z,2.57
2022-08-22T23:15:23.342Z,4.30
2022-08-22T23:17:51.015Z,3.17
2022-08-22T23:20:20.253Z,2.80
2022-08-22T23:22:48.249Z,3.63
2022-08-22T23:25:16.332Z,3.00
2022-08-22T23:27:44.822Z,3.10
2022-08-22T23:30:20.025Z,2.30
2022-08-22T23:32:47.688Z,3.03
2022-08-22T23:35:15.345Z,3.10
2022-08-22T23:37:44.338Z,3.23
2022-08-22T23:40:12.875Z,3.37
2022-08-22T23:42:40.986Z,3.23
2022-08-22T23:45:09.160Z,3.20
2022-08-22T23:47:36.809Z,2.90
2022-08-22T23:50:06.850Z,2.90
2022-08-22T23:52:34.966Z,3.53
2022-08-22T23:55:03.981Z,4.80
2022-08-22T23:57:31.821Z,4.10
